Time;durP1;ratioP1;P1;durP2;ratioP2;P2;SDS_P1;SDS_P2;PMS_P1;PMS_P2;Temp;Humidity;BMP_temperature;BMP_pressure;BME280_temperature;BME280_humidity;BME280_pressure;Samples;Min_cycle;Max_cycle;Signal;HPM_P1;HPM_P2
2022/08/01 00:01:54;;;;;;;13.07;8.80;;;18.90;99.90;;;;;;5136877;27;20058;-68
2022/08/01 00:04:20;;;;;;;11.10;8.43;;;18.80;99.90;;;;;;5136614;27;20054;-70
2022/08/01 00:06:46;;;;;;;14.37;8.63;;;18.90;99.90;;;;;;5136732;27;20039;-68
2022/08/01 00:09:11;;;;;;;14.37;8.57;;;18.80;99.90;;;;;;5137096;27;20555;-68
2022/08/01 00:11:37;;;;;;;12.67;8.00;;;18.80;99.90;;;;;;5136789;27;20054;-68
2022/08/01 00:14:03;;;;;;;10.67;7.53;;;18.80;99.90;;;;;;5136834;27;20172;-68
2022/08/01 00:16:29;;;;;;;12.30;8.03;;;18.80;99.90;;;;;;5136328;27;20113;-67
2022/08/01 00:18:55;;;;;;;10.10;7.93;;;18.80;99.90;;;;;;5118554;27;20082;-68
2022/08/01 00:21:21;;;;;;;10.07;6.17;;;18.80;99.90;;;;;;5117926;27;20117;-67
2022/08/01 00:23:47;;;;;;;13.40;7.20;;;18.80;99.90;;;;;;5136502;27;20047;-68
2022/08/01 00:26:13;;;;;;;10.23;7.07;;;18.80;99.90;;;;;;5136414;27;20103;-68
2022/08/01 00:28:39;;;;;;;7.53;6.20;;;18.80;99.90;;;;;;5136077;27;20134;-68
2022/08/01 00:31:05;;;;;;;7.43;5.93;;;18.70;99.90;;;;;;5118044;27;20084;-68
2022/08/01 00:33:31;;;;;;;8.63;5.77;;;18.70;99.90;;;;;;5136019;27;20104;-68
2022/08/01 00:35:57;;;;;;;7.60;5.73;;;18.70;99.90;;;;;;5136098;27;20046;-68
2022/08/01 00:38:23;;;;;;;6.70;4.80;;;18.70;99.90;;;;;;5136197;27;20100;-68
2022/08/01 00:40:48;;;;;;;6.40;5.03;;;18.60;99.90;;;;;;5136091;27;20125;-68
2022/08/01 00:43:14;;;;;;;6.80;5.20;;;18.60;99.90;;;;;;5136263;27;20364;-68
2022/08/01 00:45:41;;;;;;;9.23;5.60;;;18.60;99.90;;;;;;5135751;27;20467;-68
2022/08/01 00:48:06;;;;;;;10.43;6.87;;;18.60;99.90;;;;;;5136118;27;20046;-68
2022/08/01 00:50:32;;;;;;;11.60;6.10;;;18.60;99.90;;;;;;5135710;27;20134;-68
2022/08/01 00:52:58;;;;;;;8.63;5.53;;;18.60;99.90;;;;;;5135866;27;20085;-68
2022/08/01 00:55:24;;;;;;;8.10;5.50;;;18.60;99.90;;;;;;5135808;27;20043;-68
2022/08/01 00:57:50;;;;;;;8.00;4.83;;;18.60;99.90;;;;;;5135687;27;20045;-68
2022/08/01 01:00:16;;;;;;;8.93;5.70;;;18.60;99.90;;;;;;5135665;27;20066;-68
2022/08/01 01:02:43;;;;;;;12.57;5.37;;;18.50;99.90;;;;;;5117325;27;20051;-68
2022/08/01 01:05:10;;;;;;;9.53;5.00;;;18.50;99.90;;;;;;5117588;27;20047;-68
2022/08/01 01:07:48;;;;;;;6.80;4.33;;;18.50;99.90;;;;;;5135337;27;20071;-68
2022/08/01 01:10:22;;;;;;;10.33;4.43;;;18.50;99.90;;;;;;5135596;27;20066;-68
2022/08/01 01:12:59;;;;;;;9.70;3.67;;;18.50;99.90;;;;;;5135296;27;20079;-68
2022/08/01 01:15:36;;;;;;;10.47;4.47;;;18.40;99.90;;;;;;5135247;27;20475;-68
2022/08/01 01:18:11;;;;;;;6.60;3.80;;;18.40;99.90;;;;;;5134887;27;20051;-68
2022/08/01 01:20:41;;;;;;;6.63;3.30;;;18.30;99.90;;;;;;5135040;27;20511;-68
2022/08/01 01:23:44;;;;;;;7.83;3.60;;;18.30;99.90;;;;;;5135263;27;20047;-68
2022/08/01 01:26:28;;;;;;;6.97;3.47;;;18.30;99.90;;;;;;5135185;27;20047;-68
2022/08/01 01:29:15;;;;;;;9.07;3.17;;;18.30;99.90;;;;;;5116925;27;20039;-68
2022/08/01 01:31:49;;;;;;;6.67;2.97;;;18.30;99.90;;;;;;5134886;27;20051;-68
2022/08/01 01:34:19;;;;;;;6.18;2.80;;;18.20;99.90;;;;;;5134873;27;20479;-68
2022/08/01 01:36:47;;;;;;;6.03;2.70;;;18.20;99.90;;;;;;5134621;27;20046;-69
2022/08/01 01:39:15;;;;;;;6.63;3.07;;;18.20;99.90;;;;;;5134933;27;20043;-68
2022/08/01 01:41:43;;;;;;;7.60;2.50;;;18.20;99.90;;;;;;5134594;27;20046;-69
2022/08/01 01:44:11;;;;;;;7.30;2.80;;;18.20;99.90;;;;;;5134825;27;20035;-69
2022/08/01 01:46:37;;;;;;;7.00;2.40;;;18.10;99.90;;;;;;5134663;27;20043;-69
2022/08/01 01:49:05;;;;;;;5.53;2.07;;;18.10;99.90;;;;;;5134763;27;20126;-68
2022/08/01 01:51:32;;;;;;;7.80;2.57;;;18.10;99.90;;;;;;5134757;27;20042;-68
2022/08/01 01:53:59;;;;;;;7.10;2.17;;;18.20;99.90;;;;;;5134613;27;20402;-68
2022/08/01 01:56:27;;;;;;;6.53;2.27;;;18.20;99.90;;;;;;5134623;27;20046;-68
2022/08/01 01:58:56;;;;;;;5.93;2.10;;;18.10;99.90;;;;;;5116299;27;20927;-68
2022/08/01 02:01:29;;;;;;;7.33;2.53;;;18.10;99.90;;;;;;5116525;27;20089;-68
2022/08/01 02:03:57;;;;;;;6.27;2.27;;;18.10;99.90;;;;;;5133942;27;20529;-69
2022/08/01 02:06:24;;;;;;;6.33;2.40;;;18.10;99.90;;;;;;5134581;27;20077;-68
2022/08/01 02:08:51;;;;;;;5.87;2.30;;;18.10;99.90;;;;;;5115852;27;20078;-68
2022/08/01 02:11:19;;;;;;;5.70;2.10;;;18.10;99.90;;;;;;5134373;27;20039;-68
2022/08/01 02:13:55;;;;;;;5.17;1.90;;;18.00;99.90;;;;;;5134149;27;20119;-69
2022/08/01 02:16:24;;;;;;;6.13;2.90;;;18.00;99.90;;;;;;5133885;27;20090;-68
2022/08/01 02:18:50;;;;;;;8.10;2.83;;;18.00;99.90;;;;;;5133945;27;20047;-68
2022/08/01 02:21:23;;;;;;;6.20;2.47;;;18.00;99.90;;;;;;5134355;27;20051;-68
2022/08/01 02:23:50;;;;;;;7.00;2.57;;;17.90;99.90;;;;;;5133759;27;20398;-69
2022/08/01 02:26:19;;;;;;;11.77;2.70;;;17.90;99.90;;;;;;5134106;27;20035;-69
2022/08/01 02:29:01;;;;;;;7.77;2.70;;;17.90;99.90;;;;;;5133644;27;20087;-69
2022/08/01 02:31:30;;;;;;;10.13;3.00;;;17.90;99.90;;;;;;5134043;27;20496;-68
2022/08/01 02:34:02;;;;;;;7.57;2.83;;;17.90;99.90;;;;;;5133816;27;20073;-69
2022/08/01 02:36:29;;;;;;;8.10;2.63;;;17.80;99.90;;;;;;5133998;27;20078;-68
2022/08/01 02:38:58;;;;;;;10.67;3.77;;;17.80;99.90;;;;;;5133675;27;20083;-68
2022/08/01 02:41:26;;;;;;;6.77;2.83;;;17.80;99.90;;;;;;5134156;27;20134;-68
2022/08/01 02:43:56;;;;;;;8.17;3.23;;;17.70;99.90;;;;;;5133705;27;20055;-69
2022/08/01 02:46:40;;;;;;;9.50;3.00;;;17.70;99.90;;;;;;5133903;27;20039;-68
2022/08/01 02:49:09;;;;;;;8.77;3.27;;;17.70;99.90;;;;;;5116024;28;20380;-68
2022/08/01 02:51:37;;;;;;;8.70;2.70;;;17.70;99.90;;;;;;5133940;28;20057;-68
2022/08/01 02:54:05;;;;;;;9.83;2.90;;;17.70;99.90;;;;;;5133542;28;20043;-69
2022/08/01 02:56:35;;;;;;;13.77;3.07;;;17.60;99.90;;;;;;5133733;28;20035;-68
2022/08/01 02:59:14;;;;;;;10.53;3.40;;;17.60;99.90;;;;;;5133478;28;20047;-68
2022/08/01 03:01:41;;;;;;;13.70;3.30;;;17.60;99.90;;;;;;5133637;28;20047;-74
2022/08/01 03:04:08;;;;;;;9.20;3.20;;;17.50;99.90;;;;;;5133965;28;20043;-68
2022/08/01 03:06:36;;;;;;;16.47;4.20;;;17.50;99.90;;;;;;5133692;28;20062;-68
2022/08/01 03:09:03;;;;;;;14.50;4.57;;;17.50;99.90;;;;;;5133487;28;20099;-68
2022/08/01 03:11:30;;;;;;;12.43;3.83;;;17.60;99.90;;;;;;5133381;28;20468;-68
2022/08/01 03:13:59;;;;;;;12.67;3.67;;;17.60;99.90;;;;;;5133375;28;20116;-69
2022/08/01 03:16:26;;;;;;;10.97;3.73;;;17.60;99.90;;;;;;5133735;28;20059;-68
2022/08/01 03:18:57;;;;;;;14.50;3.37;;;17.60;99.90;;;;;;5133332;28;20054;-69
2022/08/01 03:21:24;;;;;;;10.80;3.90;;;17.60;99.90;;;;;;5133804;28;20122;-69
2022/08/01 03:23:56;;;;;;;11.07;3.27;;;17.60;99.90;;;;;;5133278;28;20364;-69
2022/08/01 03:26:28;;;;;;;11.73;3.60;;;17.60;99.90;;;;;;5133792;28;20403;-68
2022/08/01 03:28:57;;;;;;;11.80;3.47;;;17.50;99.90;;;;;;5133349;28;20360;-69
2022/08/01 03:31:24;;;;;;;14.50;3.40;;;17.50;99.90;;;;;;5133466;28;20043;-68
2022/08/01 03:33:50;;;;;;;17.10;3.60;;;17.50;99.90;;;;;;5115132;28;20047;-69
2022/08/01 03:36:20;;;;;;;13.40;3.83;;;17.50;99.90;;;;;;5133332;28;20043;-68
2022/08/01 03:38:50;;;;;;;13.37;3.80;;;17.50;99.90;;;;;;5133315;28;20047;-68
2022/08/01 03:41:20;;;;;;;16.27;3.90;;;17.40;99.90;;;;;;5135284;27;20523;-68
2022/08/01 03:44:14;;;;;;;16.27;4.10;;;17.40;99.90;;;;;;5137143;27;20350;-69
2022/08/01 03:46:46;;;;;;;14.87;4.00;;;17.50;99.90;;;;;;5137294;27;20061;-68
2022/08/01 03:49:18;;;;;;;19.97;5.10;;;17.40;99.90;;;;;;5137197;27;20058;-69
2022/08/01 03:51:49;;;;;;;17.80;3.93;;;17.40;99.90;;;;;;5137202;27;20043;-68
2022/08/01 03:54:17;;;;;;;12.50;4.07;;;17.50;99.90;;;;;;5119094;27;20047;-69
2022/08/01 03:56:44;;;;;;;17.07;4.33;;;17.40;99.90;;;;;;5136992;27;20438;-68
2022/08/01 03:59:10;;;;;;;14.67;3.97;;;17.40;99.90;;;;;;5118446;27;20043;-68
2022/08/01 04:01:37;;;;;;;14.93;3.87;;;17.40;99.90;;;;;;5137105;27;20079;-68
2022/08/01 04:04:05;;;;;;;17.90;4.07;;;17.40;99.90;;;;;;5118279;27;20039;-68
2022/08/01 04:06:31;;;;;;;15.83;4.73;;;17.30;99.90;;;;;;5137082;27;20039;-68
2022/08/01 04:08:57;;;;;;;14.60;4.43;;;17.30;99.90;;;;;;5136494;27;20053;-69
2022/08/01 04:11:27;;;;;;;15.83;3.90;;;17.30;99.90;;;;;;5136961;27;20043;-68
2022/08/01 04:13:54;;;;;;;12.00;4.00;;;17.30;99.90;;;;;;5136538;27;20047;-68
2022/08/01 04:16:21;;;;;;;19.13;4.33;;;17.30;99.90;;;;;;5136202;27;20514;-68
2022/08/01 04:18:47;;;;;;;17.13;4.27;;;17.30;99.90;;;;;;5136559;27;20059;-68
2022/08/01 04:21:13;;;;;;;16.77;4.20;;;17.20;99.90;;;;;;5136091;27;20051;-69
2022/08/01 04:23:43;;;;;;;16.33;3.50;;;17.20;99.90;;;;;;5136370;27;20483;-68
2022/08/01 04:26:10;;;;;;;20.30;4.40;;;17.20;99.90;;;;;;5136063;27;20051;-68
2022/08/01 04:28:37;;;;;;;17.80;3.70;;;17.20;99.90;;;;;;5136314;27;20150;-68
2022/08/01 04:31:09;;;;;;;16.27;4.10;;;17.20;99.90;;;;;;5135945;27;20123;-69
2022/08/01 04:33:36;;;;;;;22.87;5.30;;;17.20;99.90;;;;;;5136234;27;20084;-68
2022/08/01 04:36:06;;;;;;;19.13;3.90;;;17.20;99.90;;;;;;5117598;27;20050;-68
2022/08/01 04:38:36;;;;;;;17.13;4.20;;;17.20;99.90;;;;;;5136153;27;20043;-68
2022/08/01 04:41:05;;;;;;;15.33;3.30;;;17.20;99.90;;;;;;5135979;27;20074;-68
2022/08/01 04:43:31;;;;;;;21.53;3.93;;;17.10;99.90;;;;;;5136019;27;20121;-68
2022/08/01 04:45:58;;;;;;;15.23;4.03;;;17.10;99.90;;;;;;5135742;27;20039;-69
2022/08/01 04:48:25;;;;;;;21.57;3.90;;;17.10;99.90;;;;;;5135990;27;20049;-69
2022/08/01 04:50:51;;;;;;;20.00;4.37;;;17.10;99.90;;;;;;5135847;27;20043;-68
2022/08/01 04:53:21;;;;;;;19.20;4.27;;;17.10;99.90;;;;;;5134814;27;20088;-69
2022/08/01 04:55:47;;;;;;;14.83;3.50;;;17.10;99.90;;;;;;5135678;27;20039;-69
2022/08/01 04:58:15;;;;;;;20.03;4.57;;;17.10;99.90;;;;;;5135510;27;20070;-69
2022/08/01 05:00:41;;;;;;;18.97;3.73;;;17.10;99.90;;;;;;5135638;27;20050;-69
2022/08/01 05:03:07;;;;;;;15.97;3.37;;;17.20;99.90;;;;;;5135408;27;20194;-69
2022/08/01 05:05:33;;;;;;;20.70;4.20;;;17.20;99.90;;;;;;5135530;27;20043;-69
2022/08/01 05:08:00;;;;;;;14.53;3.47;;;17.20;99.90;;;;;;5135323;27;20047;-69
2022/08/01 05:10:25;;;;;;;18.57;4.00;;;17.20;99.90;;;;;;5135213;27;20541;-69
2022/08/01 05:12:51;;;;;;;16.37;3.90;;;17.20;99.90;;;;;;5135889;27;20047;-69
2022/08/01 05:15:17;;;;;;;18.43;3.67;;;17.20;99.90;;;;;;5134911;27;20036;-69
2022/08/01 05:17:43;;;;;;;19.13;3.80;;;17.20;99.90;;;;;;5135574;27;20046;-69
2022/08/01 05:20:09;;;;;;;18.50;3.63;;;17.20;99.90;;;;;;5135146;27;20039;-69
2022/08/01 05:22:35;;;;;;;15.30;3.70;;;17.20;99.90;;;;;;5135277;27;20047;-69
2022/08/01 05:25:01;;;;;;;17.20;3.70;;;17.20;99.90;;;;;;5135001;27;20050;-69
2022/08/01 05:27:26;;;;;;;15.67;3.77;;;17.20;99.90;;;;;;5135226;27;20082;-69
2022/08/01 05:29:52;;;;;;;16.77;3.80;;;17.20;99.90;;;;;;5135261;27;20038;-69
2022/08/01 05:32:18;;;;;;;16.27;4.07;;;17.20;99.90;;;;;;5134932;27;20419;-69
2022/08/01 05:34:44;;;;;;;18.07;5.37;;;17.20;99.90;;;;;;5135197;27;20047;-69
2022/08/01 05:37:10;;;;;;;17.13;4.33;;;17.20;99.90;;;;;;5134787;27;20043;-69
2022/08/01 05:39:36;;;;;;;14.07;4.47;;;17.30;99.90;;;;;;5135154;27;20051;-69
2022/08/01 05:42:02;;;;;;;20.07;4.93;;;17.20;99.90;;;;;;5134688;27;20504;-69
2022/08/01 05:44:27;;;;;;;16.13;4.67;;;17.20;99.90;;;;;;5116480;27;20043;-69
2022/08/01 05:46:53;;;;;;;16.57;3.20;;;17.20;99.90;;;;;;5134801;27;20046;-69
2022/08/01 05:49:19;;;;;;;17.70;4.40;;;17.30;99.90;;;;;;5134523;27;20050;-69
2022/08/01 05:51:45;;;;;;;17.87;4.40;;;17.30;99.90;;;;;;5134754;27;20043;-69
2022/08/01 05:54:11;;;;;;;16.57;4.20;;;17.40;99.90;;;;;;5134438;27;20054;-69
2022/08/01 05:56:36;;;;;;;20.63;4.03;;;17.40;99.90;;;;;;5134592;27;20489;-69
2022/08/01 05:59:02;;;;;;;20.97;4.93;;;17.40;99.90;;;;;;5134441;27;20099;-69
2022/08/01 06:01:28;;;;;;;22.17;4.37;;;17.40;99.90;;;;;;5134797;27;20042;-69
2022/08/01 06:03:54;;;;;;;17.67;4.40;;;17.50;99.90;;;;;;5134504;27;20074;-69
2022/08/01 06:06:20;;;;;;;22.80;5.67;;;17.50;99.90;;;;;;5134296;27;20062;-69
2022/08/01 06:08:46;;;;;;;16.70;3.57;;;17.50;99.90;;;;;;5134766;27;20187;-69
2022/08/01 06:11:12;;;;;;;12.03;3.80;;;17.50;99.90;;;;;;5134138;27;20514;-69
2022/08/01 06:13:38;;;;;;;20.50;4.07;;;17.50;99.90;;;;;;5134386;27;20082;-69
2022/08/01 06:16:04;;;;;;;20.40;4.27;;;17.40;99.90;;;;;;5133961;27;20090;-69
2022/08/01 06:18:29;;;;;;;18.00;3.77;;;17.40;99.90;;;;;;5134311;27;20055;-69
2022/08/01 06:20:55;;;;;;;17.23;4.03;;;17.50;99.90;;;;;;5134394;27;20050;-69
2022/08/01 06:23:22;;;;;;;20.33;5.07;;;17.50;99.90;;;;;;5134055;27;20147;-69
2022/08/01 06:25:48;;;;;;;22.17;4.03;;;17.50;99.90;;;;;;5134375;27;20440;-69
2022/08/01 06:28:13;;;;;;;33.93;5.40;;;17.60;99.90;;;;;;5133878;27;20043;-69
2022/08/01 06:30:39;;;;;;;58.80;9.00;;;17.60;99.90;;;;;;5134137;27;20046;-69
2022/08/01 06:33:05;;;;;;;20.73;4.13;;;17.70;99.90;;;;;;5115561;27;20054;-69
2022/08/01 06:35:31;;;;;;;18.43;4.63;;;17.70;99.90;;;;;;5134242;27;20126;-69
2022/08/01 06:37:57;;;;;;;21.37;4.60;;;17.90;99.90;;;;;;5134293;27;20089;-69
2022/08/01 06:40:23;;;;;;;20.67;4.30;;;18.00;99.90;;;;;;5115498;28;20043;-69
2022/08/01 06:42:50;;;;;;;16.67;3.57;;;18.00;99.90;;;;;;5134191;27;20043;-69
2022/08/01 06:45:16;;;;;;;18.93;4.77;;;18.10;99.90;;;;;;5143904;27;20091;-70
2022/08/01 06:47:43;;;;;;;17.00;4.07;;;18.20;99.90;;;;;;5116230;28;20054;-70
2022/08/01 06:50:10;;;;;;;15.83;3.40;;;18.20;99.90;;;;;;5115479;28;20046;-70
2022/08/01 06:52:37;;;;;;;116.10;18.33;;;18.40;99.90;;;;;;5133945;28;20058;-70
2022/08/01 06:55:03;;;;;;;295.23;36.47;;;18.60;99.90;;;;;;5133814;28;20046;-69
2022/08/01 06:57:29;;;;;;;19.30;3.83;;;18.70;99.90;;;;;;5133655;28;20043;-69
2022/08/01 06:59:55;;;;;;;17.77;3.83;;;18.80;99.90;;;;;;5133761;28;20498;-70
2022/08/01 07:02:22;;;;;;;13.63;2.90;;;18.90;99.90;;;;;;5133559;28;20126;-70
2022/08/01 07:04:47;;;;;;;16.60;4.20;;;19.00;99.90;;;;;;5133757;28;20428;-70
2022/08/01 07:07:13;;;;;;;13.53;3.03;;;19.00;99.90;;;;;;5133558;28;20050;-70
2022/08/01 07:09:41;;;;;;;13.77;3.17;;;19.10;99.90;;;;;;5133742;28;20073;-70
2022/08/01 07:12:07;;;;;;;17.83;3.60;;;19.50;99.90;;;;;;5133815;28;20054;-70
2022/08/01 07:14:33;;;;;;;13.73;3.27;;;20.00;99.90;;;;;;5133385;28;20100;-71
2022/08/01 07:16:58;;;;;;;14.23;3.03;;;20.60;99.90;;;;;;5136338;27;20063;-70
2022/08/01 07:19:24;;;;;;;14.83;3.13;;;21.40;99.90;;;;;;5137582;27;20383;-71
2022/08/01 07:21:50;;;;;;;13.97;3.13;;;22.50;99.90;;;;;;5137772;27;20039;-71
2022/08/01 07:24:16;;;;;;;14.03;3.13;;;;;;;;;;5137545;27;20218;-74
2022/08/01 07:26:43;;;;;;;16.33;3.63;;;;;;;;;;5137695;27;20039;-72
2022/08/01 07:29:09;;;;;;;14.23;3.30;;;24.10;97.40;;;;;;5137680;27;20107;-70
2022/08/01 07:31:35;;;;;;;14.00;3.23;;;24.70;99.90;;;;;;5137293;27;20475;-71
2022/08/01 07:34:00;;;;;;;9.83;2.63;;;25.50;99.90;;;;;;5137586;27;20039;-71
2022/08/01 07:36:26;;;;;;;10.87;2.53;;;26.10;84.30;;;;;;5137185;27;20039;-71
2022/08/01 07:38:52;;;;;;;11.03;3.20;;;;;;;;;;5137311;27;20126;-71
2022/08/01 07:41:18;;;;;;;13.83;3.47;;;;;;;;;;5137202;27;20134;-70
2022/08/01 07:43:44;;;;;;;11.27;3.10;;;;;;;;;;5137463;27;20055;-70
2022/08/01 07:46:10;;;;;;;15.57;3.10;;;;;;;;;;5137318;27;20121;-71
2022/08/01 07:48:36;;;;;;;13.60;3.53;;;;;;;;;;5137116;27;20050;-71
2022/08/01 07:51:02;;;;;;;17.57;3.30;;;26.00;74.10;;;;;;5119167;27;20440;-71
2022/08/01 07:53:28;;;;;;;14.63;3.27;;;26.00;66.50;;;;;;5136877;27;20130;-71
2022/08/01 07:55:55;;;;;;;11.87;2.83;;;;;;;;;;5136970;27;20043;-72
2022/08/01 07:58:21;;;;;;;11.20;3.17;;;;;;;;;;5136817;27;20057;-71
2022/08/01 08:00:47;;;;;;;9.75;2.63;;;;;;;;;;5137206;27;20054;-71
2022/08/01 08:03:13;;;;;;;11.88;3.20;;;;;;;;;;5137029;27;20083;-70
2022/08/01 08:05:39;;;;;;;9.68;2.97;;;;;;;;;;5136860;27;20050;-71
2022/08/01 08:08:06;;;;;;;8.73;2.58;;;;;;;;;;5137045;27;20051;-71
2022/08/01 08:10:32;;;;;;;10.52;3.25;;;;;;;;;;5118350;27;20043;-71
2022/08/01 08:12:58;;;;;;;10.50;2.97;;;;;;;;;;5136849;27;20047;-73
2022/08/01 08:15:24;;;;;;;13.85;3.50;;;;;;;;;;5136557;27;20079;-73
2022/08/01 08:17:50;;;;;;;9.38;3.10;;;;;;;;;;5136979;27;20107;-73
2022/08/01 08:20:18;;;;;;;10.93;2.90;;;;;;;;;;5136466;27;20058;-85
2022/08/01 08:22:44;;;;;;;12.43;3.08;;;;;;;;;;5118269;27;20043;-79
2022/08/01 08:25:11;;;;;;;9.65;3.20;;;;;;;;;;5136727;27;20054;-81
2022/08/01 08:27:37;;;;;;;8.82;2.67;;;;;;;;;;5134938;27;20050;-81
2022/08/01 08:30:07;;;;;;;10.02;2.70;;;;;;;;;;5136660;27;20043;-82
2022/08/01 08:32:33;;;;;;;12.40;3.55;;;25.70;58.40;;;;;;5136255;27;20398;-77
2022/08/01 08:34:59;;;;;;;9.48;2.55;;;;;;;;;;5136330;27;20051;-83
2022/08/01 08:37:25;;;;;;;14.50;2.47;;;24.80;64.10;;;;;;5135988;27;20086;-82
2022/08/01 08:39:50;;;;;;;14.50;3.75;;;24.60;60.90;;;;;;5136292;27;20473;-83
2022/08/01 08:42:16;;;;;;;13.55;2.70;;;24.20;65.10;;;;;;5101282;27;20055;-81
2022/08/01 08:44:42;;;;;;;10.77;2.80;;;23.70;67.90;;;;;;5117801;27;20043;-79
2022/08/01 08:47:11;;;;;;;9.57;2.30;;;23.40;69.80;;;;;;5136087;27;20071;-77
2022/08/01 08:49:37;;;;;;;9.63;2.77;;;23.00;71.80;;;;;;5135759;27;20050;-80
2022/08/01 08:52:04;;;;;;;10.73;2.43;;;23.10;74.20;;;;;;5136168;27;20047;-78
2022/08/01 08:54:31;;;;;;;9.53;2.43;;;23.00;75.80;;;;;;5135717;27;20047;-80
2022/08/01 08:56:58;;;;;;;8.77;2.60;;;23.00;73.60;;;;;;5136029;27;20046;-73
2022/08/01 08:59:25;;;;;;;13.37;3.37;;;22.80;75.60;;;;;;5135604;27;20047;-72
2022/08/01 09:01:51;;;;;;;11.73;2.40;;;22.70;76.00;;;;;;5135940;27;20096;-71
2022/08/01 09:04:17;;;;;;;14.03;3.27;;;22.60;79.20;;;;;;5135907;27;20062;-73
2022/08/01 09:06:43;;;;;;;10.40;2.47;;;22.50;78.80;;;;;;5135449;27;20043;-73
2022/08/01 09:09:10;;;;;;;15.20;2.57;;;22.40;82.60;;;;;;5135345;27;20121;-74
2022/08/01 09:11:36;;;;;;;9.03;2.77;;;22.40;85.10;;;;;;5135381;27;20043;-73
2022/08/01 09:14:23;;;;;;;12.67;2.63;;;22.40;88.50;;;;;;5135697;27;20039;-71
2022/08/01 09:17:08;;;;;;;9.97;2.40;;;22.30;84.40;;;;;;5135162;27;20058;-73
2022/08/01 09:19:54;;;;;;;11.25;2.35;;;22.40;85.60;;;;;;5117266;27;20086;-78
2022/08/01 09:22:22;;;;;;;9.60;2.50;;;22.20;83.40;;;;;;5135492;27;20054;-75
2022/08/01 09:25:06;;;;;;;11.90;2.23;;;22.30;86.20;;;;;;5135110;27;20039;-73
2022/08/01 09:27:33;;;;;;;9.70;2.13;;;22.40;89.70;;;;;;5135228;27;20051;-76
2022/08/01 09:30:09;;;;;;;6.33;2.00;;;22.40;87.30;;;;;;5135312;27;20100;-76
2022/08/01 09:32:35;;;;;;;11.40;2.47;;;22.40;85.80;;;;;;5134960;27;20035;-73
2022/08/01 09:35:24;;;;;;;9.20;2.00;;;22.30;85.60;;;;;;5135195;27;20103;-72
2022/08/01 09:37:50;;;;;;;9.43;2.50;;;22.30;84.90;;;;;;5134892;27;20139;-72
2022/08/01 09:40:15;;;;;;;9.97;2.10;;;22.10;82.70;;;;;;5135018;27;20075;-72
2022/08/01 09:42:41;;;;;;;11.20;2.60;;;21.90;84.00;;;;;;5134793;27;20039;-72
2022/08/01 09:45:07;;;;;;;9.20;2.17;;;22.00;88.10;;;;;;5134949;27;20121;-71
2022/08/01 09:47:39;;;;;;;11.73;2.40;;;22.10;85.20;;;;;;5134718;27;20100;-72
2022/08/01 09:50:06;;;;;;;9.73;2.17;;;22.10;85.10;;;;;;5134912;27;20043;-72
2022/08/01 09:52:32;;;;;;;8.67;2.00;;;22.10;85.90;;;;;;5134655;27;20065;-72
2022/08/01 09:55:05;;;;;;;7.13;2.10;;;22.00;86.20;;;;;;5134871;27;20493;-72
2022/08/01 09:57:31;;;;;;;13.60;2.83;;;21.80;88.00;;;;;;5134432;27;20039;-72
2022/08/01 10:00:01;;;;;;;9.40;2.83;;;21.80;89.20;;;;;;5116376;27;20054;-72
2022/08/01 10:02:32;;;;;;;11.00;2.27;;;21.80;86.90;;;;;;5134681;27;20051;-72
2022/08/01 10:04:59;;;;;;;13.37;2.40;;;21.60;86.70;;;;;;5134810;27;20122;-72
2022/08/01 10:07:25;;;;;;;7.60;2.77;;;21.60;85.40;;;;;;5134685;27;20104;-72
2022/08/01 10:09:50;;;;;;;9.67;2.60;;;21.70;89.60;;;;;;5134262;27;20478;-72
2022/08/01 10:12:18;;;;;;;11.87;2.20;;;21.80;89.70;;;;;;5134226;27;20085;-72
2022/08/01 10:14:47;;;;;;;9.20;2.00;;;21.80;86.70;;;;;;5134189;27;20103;-72
2022/08/01 10:17:15;;;;;;;8.70;2.10;;;21.80;84.80;;;;;;5134278;27;20104;-72
2022/08/01 10:19:43;;;;;;;7.60;1.80;;;21.80;83.10;;;;;;5133736;27;20072;-72
2022/08/01 10:22:16;;;;;;;9.33;2.10;;;21.80;82.60;;;;;;5134270;27;20051;-72
2022/08/01 10:24:44;;;;;;;8.33;2.10;;;21.70;81.80;;;;;;5134026;27;20051;-72
2022/08/01 10:27:11;;;;;;;12.27;2.70;;;21.60;80.90;;;;;;5134169;27;20057;-72
2022/08/01 10:30:03;;;;;;;11.87;2.60;;;21.60;84.60;;;;;;5133984;27;20066;-72
2022/08/01 10:32:33;;;;;;;12.97;2.40;;;21.40;85.50;;;;;;5134106;27;20049;-72
2022/08/01 10:35:00;;;;;;;9.60;2.47;;;21.30;86.20;;;;;;5134095;27;20375;-77
2022/08/01 10:37:26;;;;;;;9.87;2.07;;;21.20;84.30;;;;;;5133713;27;20042;-72
2022/08/01 10:39:52;;;;;;;9.77;2.20;;;21.30;85.60;;;;;;5133839;27;20054;-73
2022/08/01 10:42:18;;;;;;;7.63;1.80;;;21.40;86.20;;;;;;5134055;27;20532;-73
2022/08/01 10:44:47;;;;;;;9.80;2.23;;;21.40;81.60;;;;;;5133742;27;20043;-72
2022/08/01 10:47:15;;;;;;;9.57;2.10;;;21.50;82.30;;;;;;5115879;28;20108;-73
2022/08/01 10:49:50;;;;;;;11.03;2.37;;;21.30;81.30;;;;;;5115260;27;20126;-69
2022/08/01 10:52:17;;;;;;;6.47;1.80;;;21.30;79.90;;;;;;5133606;27;20076;-69
2022/08/01 10:54:42;;;;;;;12.47;2.90;;;21.30;83.00;;;;;;5133652;28;20035;-69
2022/08/01 10:57:10;;;;;;;11.43;2.10;;;21.40;83.50;;;;;;5133793;28;20047;-69
2022/08/01 10:59:46;;;;;;;11.03;2.67;;;21.50;84.00;;;;;;5115535;28;20538;-70
2022/08/01 11:02:26;;;;;;;10.33;2.60;;;21.50;80.50;;;;;;5133943;28;20039;-69
2022/08/01 11:05:04;;;;;;;7.67;2.03;;;21.40;82.30;;;;;;5133522;28;20043;-69
2022/08/01 11:07:52;;;;;;;5.97;1.90;;;21.40;80.20;;;;;;5133591;28;20503;-69
2022/08/01 11:10:44;;;;;;;7.63;1.87;;;21.40;70.70;;;;;;5134067;28;20065;-69
2022/08/01 11:13:11;;;;;;;6.83;1.70;;;21.50;76.50;;;;;;5128652;28;20051;-70
2022/08/01 11:15:41;;;;;;;10.37;1.93;;;21.50;77.00;;;;;;5133468;28;20083;-73
2022/08/01 11:18:32;;;;;;;10.53;2.47;;;21.60;75.60;;;;;;5133755;28;20094;-71
2022/08/01 11:21:00;;;;;;;8.40;2.33;;;21.60;73.70;;;;;;5115362;28;20054;-71
2022/08/01 11:23:27;;;;;;;7.00;1.90;;;21.50;76.30;;;;;;5133737;28;20058;-71
2022/08/01 11:25:53;;;;;;;7.73;1.77;;;21.50;77.60;;;;;;5133432;28;20381;-70
2022/08/01 11:28:21;;;;;;;10.20;1.83;;;21.60;76.40;;;;;;5115314;28;20126;-70
2022/08/01 11:31:15;;;;;;;11.60;2.60;;;21.60;72.70;;;;;;5133329;28;20080;-71
2022/08/01 11:33:41;;;;;;;7.80;2.10;;;21.50;72.50;;;;;;5133176;28;20069;-71
2022/08/01 11:36:12;;;;;;;8.67;2.00;;;21.30;76.90;;;;;;5133136;28;20495;-71
2022/08/01 11:38:43;;;;;;;7.80;2.03;;;21.40;77.50;;;;;;5133564;28;20046;-71
2022/08/01 11:41:23;;;;;;;7.87;1.80;;;21.50;75.50;;;;;;5133533;28;20061;-71
2022/08/01 11:44:01;;;;;;;11.50;2.00;;;21.50;76.30;;;;;;5133191;28;20039;-71
2022/08/01 11:47:07;;;;;;;7.83;1.70;;;21.50;73.20;;;;;;5133309;28;20490;-71
2022/08/01 11:49:54;;;;;;;7.60;2.10;;;21.40;73.80;;;;;;5133478;28;20047;-71
2022/08/01 11:52:32;;;;;;;10.07;2.03;;;21.30;72.70;;;;;;5133365;28;20053;-71
2022/08/01 11:55:06;;;;;;;8.07;2.23;;;21.10;73.10;;;;;;5133000;28;20092;-71
2022/08/01 11:57:37;;;;;;;7.43;1.90;;;21.10;76.30;;;;;;5114904;28;20483;-71
2022/08/01 12:00:17;;;;;;;8.03;1.77;;;21.00;75.40;;;;;;5133051;28;20188;-71
2022/08/01 12:02:56;;;;;;;8.17;2.00;;;21.00;72.50;;;;;;5135109;27;20100;-72
2022/08/01 12:05:21;;;;;;;7.97;1.80;;;20.90;74.80;;;;;;5137158;27;20054;-71
2022/08/01 12:07:51;;;;;;;7.43;2.00;;;20.70;74.00;;;;;;5136556;27;20039;-71
2022/08/01 12:10:19;;;;;;;7.63;1.60;;;20.70;76.30;;;;;;5137023;27;20051;-71
2022/08/01 12:12:48;;;;;;;6.37;1.80;;;20.70;74.10;;;;;;5136504;27;20050;-72
2022/08/01 12:15:15;;;;;;;8.00;1.70;;;20.80;73.40;;;;;;5136969;27;20172;-72
2022/08/01 12:17:45;;;;;;;6.03;2.07;;;20.80;72.10;;;;;;5136731;27;20059;-72
2022/08/01 12:20:15;;;;;;;8.83;2.50;;;20.70;72.70;;;;;;5136780;27;20039;-72
2022/08/01 12:22:41;;;;;;;6.60;1.60;;;20.80;73.30;;;;;;5118245;27;20043;-72
2022/08/01 12:25:14;;;;;;;7.13;1.77;;;20.90;74.30;;;;;;5136345;27;20047;-72
2022/08/01 12:27:42;;;;;;;11.90;2.80;;;20.80;72.70;;;;;;5136464;27;20054;-75
2022/08/01 12:30:10;;;;;;;8.27;1.93;;;20.80;75.00;;;;;;5136168;27;20137;-72
2022/08/01 12:32:38;;;;;;;7.90;1.70;;;20.80;75.20;;;;;;5136505;27;20061;-72
2022/08/01 12:35:13;;;;;;;9.13;1.90;;;20.70;72.40;;;;;;5136071;27;20046;-77
2022/08/01 12:37:46;;;;;;;7.53;2.20;;;20.70;71.80;;;;;;5136388;27;20055;-76
2022/08/01 12:40:13;;;;;;;9.17;1.87;;;20.80;73.40;;;;;;5136189;27;20094;-76
2022/08/01 12:42:41;;;;;;;6.97;2.63;;;20.70;70.60;;;;;;5136581;27;20051;-78
2022/08/01 12:45:13;;;;;;;9.07;1.93;;;20.60;71.60;;;;;;5117787;27;20950;-76
2022/08/01 12:47:39;;;;;;;6.63;1.63;;;20.60;71.60;;;;;;5136320;27;20047;-76
2022/08/01 12:50:08;;;;;;;9.10;2.17;;;20.60;73.90;;;;;;5117796;27;20058;-76
2022/08/01 12:52:34;;;;;;;7.73;1.93;;;20.70;73.10;;;;;;5136297;27;20046;-76
2022/08/01 12:55:05;;;;;;;7.77;1.70;;;20.70;73.90;;;;;;5135893;27;20054;-77
2022/08/01 12:57:32;;;;;;;9.13;1.83;;;20.90;74.20;;;;;;5135669;27;20487;-76